sensor_id;sensor_type;location;lat;lon;timestamp;P1;durP1;ratioP1;P2;durP2;ratioP2
13580;SDS011;6861;46.170;7.222;2022-08-19T00:01:47;4.40;;;3.40;;
13580;SDS011;6861;46.170;7.222;2022-08-19T00:04:16;4.65;;;4.05;;
13580;SDS011;6861;46.170;7.222;2022-08-19T00:06:45;5.32;;;4.60;;
13580;SDS011;6861;46.170;7.222;2022-08-19T00:09:14;4.97;;;4.57;;
13580;SDS011;6861;46.170;7.222;2022-08-19T00:11:45;4.85;;;4.45;;
13580;SDS011;6861;46.170;7.222;2022-08-19T00:14:14;5.20;;;4.75;;
13580;SDS011;6861;46.170;7.222;2022-08-19T00:16:43;5.00;;;4.50;;
13580;SDS011;6861;46.170;7.222;2022-08-19T00:19:12;6.22;;;3.83;;
13580;SDS011;6861;46.170;7.222;2022-08-19T00:21:40;5.53;;;4.30;;
13580;SDS011;6861;46.170;7.222;2022-08-19T00:24:07;4.00;;;3.65;;
13580;SDS011;6861;46.170;7.222;2022-08-19T00:26:36;5.75;;;4.13;;
13580;SDS011;6861;46.170;7.222;2022-08-19T00:29:05;8.13;;;4.10;;
13580;SDS011;6861;46.170;7.222;2022-08-19T00:31:33;5.93;;;4.20;;
13580;SDS011;6861;46.170;7.222;2022-08-19T00:34:00;6.22;;;4.22;;
13580;SDS011;6861;46.170;7.222;2022-08-19T00:36:28;4.55;;;4.07;;
13580;SDS011;6861;46.170;7.222;2022-08-19T00:38:55;4.45;;;4.00;;
13580;SDS011;6861;46.170;7.222;2022-08-19T00:41:23;3.65;;;3.30;;
13580;SDS011;6861;46.170;7.222;2022-08-19T00:43:58;6.60;;;3.83;;
13580;SDS011;6861;46.170;7.222;2022-08-19T00:46:28;4.53;;;3.35;;
13580;SDS011;6861;46.170;7.222;2022-08-19T00:48:56;4.72;;;3.60;;
13580;SDS011;6861;46.170;7.222;2022-08-19T00:51:24;3.92;;;3.42;;
13580;SDS011;6861;46.170;7.222;2022-08-19T00:53:52;4.10;;;3.47;;
13580;SDS011;6861;46.170;7.222;2022-08-19T00:56:20;3.78;;;3.10;;
13580;SDS011;6861;46.170;7.222;2022-08-19T00:58:48;4.63;;;3.65;;
13580;SDS011;6861;46.170;7.222;2022-08-19T01:01:16;4.35;;;3.95;;
13580;SDS011;6861;46.170;7.222;2022-08-19T01:03:44;5.35;;;3.60;;
13580;SDS011;6861;46.170;7.222;2022-08-19T01:06:11;3.63;;;3.33;;
13580;SDS011;6861;46.170;7.222;2022-08-19T01:08:39;4.43;;;3.15;;
13580;SDS011;6861;46.170;7.222;2022-08-19T01:11:06;4.45;;;4.05;;
13580;SDS011;6861;46.170;7.222;2022-08-19T01:13:34;4.45;;;3.67;;
13580;SDS011;6861;46.170;7.222;2022-08-19T01:16:03;4.05;;;3.60;;
13580;SDS011;6861;46.170;7.222;2022-08-19T01:18:35;4.30;;;3.60;;
13580;SDS011;6861;46.170;7.222;2022-08-19T01:21:08;8.57;;;3.58;;
13580;SDS011;6861;46.170;7.222;2022-08-19T01:23:42;5.45;;;4.20;;
13580;SDS011;6861;46.170;7.222;2022-08-19T01:26:11;5.03;;;4.38;;
13580;SDS011;6861;46.170;7.222;2022-08-19T01:28:39;5.10;;;4.40;;
13580;SDS011;6861;46.170;7.222;2022-08-19T01:31:07;6.40;;;4.32;;
13580;SDS011;6861;46.170;7.222;2022-08-19T01:33:37;7.10;;;4.53;;
13580;SDS011;6861;46.170;7.222;2022-08-19T01:36:05;4.95;;;4.28;;
13580;SDS011;6861;46.170;7.222;2022-08-19T01:38:36;4.35;;;3.90;;
13580;SDS011;6861;46.170;7.222;2022-08-19T01:41:05;6.55;;;4.47;;
13580;SDS011;6861;46.170;7.222;2022-08-19T01:43:32;4.78;;;4.25;;
13580;SDS011;6861;46.170;7.222;2022-08-19T01:46:00;5.72;;;4.13;;
13580;SDS011;6861;46.170;7.222;2022-08-19T01:48:32;4.78;;;4.32;;
13580;SDS011;6861;46.170;7.222;2022-08-19T01:50:59;6.07;;;4.47;;
13580;SDS011;6861;46.170;7.222;2022-08-19T01:53:27;5.55;;;4.65;;
13580;SDS011;6861;46.170;7.222;2022-08-19T01:55:55;5.38;;;4.75;;
13580;SDS011;6861;46.170;7.222;2022-08-19T01:58:24;7.18;;;5.00;;
13580;SDS011;6861;46.170;7.222;2022-08-19T02:00:55;5.70;;;4.75;;
13580;SDS011;6861;46.170;7.222;2022-08-19T02:03:23;6.18;;;5.47;;
13580;SDS011;6861;46.170;7.222;2022-08-19T02:05:53;6.25;;;5.60;;
13580;SDS011;6861;46.170;7.222;2022-08-19T02:08:21;5.88;;;4.90;;
13580;SDS011;6861;46.170;7.222;2022-08-19T02:10:48;6.00;;;5.28;;
13580;SDS011;6861;46.170;7.222;2022-08-19T02:13:16;5.70;;;5.10;;
13580;SDS011;6861;46.170;7.222;2022-08-19T02:15:44;6.18;;;5.57;;
13580;SDS011;6861;46.170;7.222;2022-08-19T02:18:11;6.70;;;5.55;;
13580;SDS011;6861;46.170;7.222;2022-08-19T02:20:40;7.93;;;6.10;;
13580;SDS011;6861;46.170;7.222;2022-08-19T02:23:08;7.18;;;6.18;;
13580;SDS011;6861;46.170;7.222;2022-08-19T02:25:36;6.22;;;5.65;;
13580;SDS011;6861;46.170;7.222;2022-08-19T02:28:04;6.38;;;5.82;;
13580;SDS011;6861;46.170;7.222;2022-08-19T02:30:31;6.60;;;5.63;;
13580;SDS011;6861;46.170;7.222;2022-08-19T02:33:00;6.40;;;5.80;;
13580;SDS011;6861;46.170;7.222;2022-08-19T02:35:27;7.43;;;6.03;;
13580;SDS011;6861;46.170;7.222;2022-08-19T02:37:54;6.68;;;6.03;;
13580;SDS011;6861;46.170;7.222;2022-08-19T02:40:38;6.82;;;6.22;;
13580;SDS011;6861;46.170;7.222;2022-08-19T02:43:07;6.65;;;5.68;;
13580;SDS011;6861;46.170;7.222;2022-08-19T03:15:53;3.30;;;3.00;;
13580;SDS011;6861;46.170;7.222;2022-08-19T03:18:20;3.10;;;2.78;;
13580;SDS011;6861;46.170;7.222;2022-08-19T03:20:48;2.50;;;2.30;;
13580;SDS011;6861;46.170;7.222;2022-08-19T03:23:17;3.78;;;2.30;;
13580;SDS011;6861;46.170;7.222;2022-08-19T03:25:47;2.40;;;2.20;;
13580;SDS011;6861;46.170;7.222;2022-08-19T03:28:14;2.38;;;1.60;;
13580;SDS011;6861;46.170;7.222;2022-08-19T03:30:42;2.97;;;2.20;;
13580;SDS011;6861;46.170;7.222;2022-08-19T03:33:22;3.38;;;2.50;;
13580;SDS011;6861;46.170;7.222;2022-08-19T03:35:59;4.20;;;2.40;;
13580;SDS011;6861;46.170;7.222;2022-08-19T03:38:30;1.77;;;1.33;;
13580;SDS011;6861;46.170;7.222;2022-08-19T03:41:01;1.80;;;1.45;;
13580;SDS011;6861;46.170;7.222;2022-08-19T03:43:31;1.60;;;1.30;;
13580;SDS011;6861;46.170;7.222;2022-08-19T03:46:00;1.40;;;1.30;;
13580;SDS011;6861;46.170;7.222;2022-08-19T03:48:30;1.20;;;1.10;;
13580;SDS011;6861;46.170;7.222;2022-08-19T03:50:58;1.65;;;1.30;;
13580;SDS011;6861;46.170;7.222;2022-08-19T03:53:26;3.15;;;1.13;;
13580;SDS011;6861;46.170;7.222;2022-08-19T03:55:54;1.25;;;1.15;;
13580;SDS011;6861;46.170;7.222;2022-08-19T03:58:23;1.50;;;1.30;;
13580;SDS011;6861;46.170;7.222;2022-08-19T04:00:50;1.17;;;1.08;;
13580;SDS011;6861;46.170;7.222;2022-08-19T04:03:17;1.20;;;1.00;;
13580;SDS011;6861;46.170;7.222;2022-08-19T04:05:47;0.82;;;0.82;;
13580;SDS011;6861;46.170;7.222;2022-08-19T04:08:14;1.23;;;1.08;;
13580;SDS011;6861;46.170;7.222;2022-08-19T04:10:45;2.35;;;1.10;;
13580;SDS011;6861;46.170;7.222;2022-08-19T04:13:13;1.13;;;0.82;;
13580;SDS011;6861;46.170;7.222;2022-08-19T04:15:41;0.88;;;0.88;;
13580;SDS011;6861;46.170;7.222;2022-08-19T04:18:11;2.40;;;1.00;;
13580;SDS011;6861;46.170;7.222;2022-08-19T04:20:40;1.08;;;1.00;;
13580;SDS011;6861;46.170;7.222;2022-08-19T04:23:12;1.75;;;1.00;;
13580;SDS011;6861;46.170;7.222;2022-08-19T04:25:40;1.08;;;0.90;;
13580;SDS011;6861;46.170;7.222;2022-08-19T04:28:09;1.45;;;1.10;;
13580;SDS011;6861;46.170;7.222;2022-08-19T04:30:38;1.20;;;0.90;;
13580;SDS011;6861;46.170;7.222;2022-08-19T04:33:06;1.30;;;1.08;;
13580;SDS011;6861;46.170;7.222;2022-08-19T04:35:36;1.80;;;0.90;;
13580;SDS011;6861;46.170;7.222;2022-08-19T04:38:05;1.75;;;1.13;;
13580;SDS011;6861;46.170;7.222;2022-08-19T04:40:39;1.45;;;1.00;;
13580;SDS011;6861;46.170;7.222;2022-08-19T04:43:24;1.58;;;1.00;;
13580;SDS011;6861;46.170;7.222;2022-08-19T04:45:51;1.25;;;1.00;;
13580;SDS011;6861;46.170;7.222;2022-08-19T04:48:18;1.20;;;1.00;;
13580;SDS011;6861;46.170;7.222;2022-08-19T04:50:51;1.92;;;1.17;;
13580;SDS011;6861;46.170;7.222;2022-08-19T04:53:22;2.05;;;1.10;;
13580;SDS011;6861;46.170;7.222;2022-08-19T04:55:55;1.40;;;1.30;;
13580;SDS011;6861;46.170;7.222;2022-08-19T04:58:23;1.20;;;1.10;;
13580;SDS011;6861;46.170;7.222;2022-08-19T05:00:51;1.48;;;1.27;;
13580;SDS011;6861;46.170;7.222;2022-08-19T05:03:18;1.50;;;1.40;;
13580;SDS011;6861;46.170;7.222;2022-08-19T05:05:46;1.92;;;1.10;;
13580;SDS011;6861;46.170;7.222;2022-08-19T05:08:16;3.20;;;1.10;;
13580;SDS011;6861;46.170;7.222;2022-08-19T05:10:46;2.03;;;1.10;;
13580;SDS011;6861;46.170;7.222;2022-08-19T05:13:15;1.70;;;1.10;;
13580;SDS011;6861;46.170;7.222;2022-08-19T05:15:43;2.67;;;1.40;;
13580;SDS011;6861;46.170;7.222;2022-08-19T05:18:19;1.10;;;1.00;;
13580;SDS011;6861;46.170;7.222;2022-08-19T05:21:05;2.38;;;1.30;;
13580;SDS011;6861;46.170;7.222;2022-08-19T05:23:50;1.60;;;1.00;;
13580;SDS011;6861;46.170;7.222;2022-08-19T05:26:17;1.92;;;1.17;;
13580;SDS011;6861;46.170;7.222;2022-08-19T05:28:46;1.33;;;1.23;;
13580;SDS011;6861;46.170;7.222;2022-08-19T05:31:13;1.80;;;1.10;;
13580;SDS011;6861;46.170;7.222;2022-08-19T05:33:40;1.98;;;1.00;;
13580;SDS011;6861;46.170;7.222;2022-08-19T05:36:07;1.30;;;1.00;;
13580;SDS011;6861;46.170;7.222;2022-08-19T05:38:34;1.20;;;1.10;;
13580;SDS011;6861;46.170;7.222;2022-08-19T05:41:05;1.55;;;1.00;;
13580;SDS011;6861;46.170;7.222;2022-08-19T05:43:33;1.27;;;1.00;;
13580;SDS011;6861;46.170;7.222;2022-08-19T05:46:02;1.42;;;0.90;;
13580;SDS011;6861;46.170;7.222;2022-08-19T05:48:29;1.33;;;1.08;;
13580;SDS011;6861;46.170;7.222;2022-08-19T05:50:56;1.77;;;1.00;;
13580;SDS011;6861;46.170;7.222;2022-08-19T05:53:24;1.90;;;1.10;;
13580;SDS011;6861;46.170;7.222;2022-08-19T05:55:51;3.33;;;1.20;;
13580;SDS011;6861;46.170;7.222;2022-08-19T05:58:18;2.22;;;1.10;;
13580;SDS011;6861;46.170;7.222;2022-08-19T06:00:45;1.48;;;1.02;;
13580;SDS011;6861;46.170;7.222;2022-08-19T06:03:13;1.45;;;0.93;;
13580;SDS011;6861;46.170;7.222;2022-08-19T06:05:41;1.40;;;1.00;;
13580;SDS011;6861;46.170;7.222;2022-08-19T06:08:08;0.98;;;0.80;;
13580;SDS011;6861;46.170;7.222;2022-08-19T06:10:35;4.95;;;1.15;;
13580;SDS011;6861;46.170;7.222;2022-08-19T06:13:02;1.58;;;0.95;;
13580;SDS011;6861;46.170;7.222;2022-08-19T06:15:30;1.00;;;0.90;;
13580;SDS011;6861;46.170;7.222;2022-08-19T06:17:57;0.88;;;0.60;;
13580;SDS011;6861;46.170;7.222;2022-08-19T06:20:26;0.60;;;0.55;;
13580;SDS011;6861;46.170;7.222;2022-08-19T06:22:53;0.98;;;0.63;;
13580;SDS011;6861;46.170;7.222;2022-08-19T06:25:20;0.70;;;0.60;;
13580;SDS011;6861;46.170;7.222;2022-08-19T06:27:47;0.75;;;0.63;;
13580;SDS011;6861;46.170;7.222;2022-08-19T06:30:14;1.40;;;0.90;;
13580;SDS011;6861;46.170;7.222;2022-08-19T06:32:41;1.55;;;1.05;;
13580;SDS011;6861;46.170;7.222;2022-08-19T06:35:08;1.42;;;0.82;;
13580;SDS011;6861;46.170;7.222;2022-08-19T06:37:37;0.85;;;0.77;;
13580;SDS011;6861;46.170;7.222;2022-08-19T06:40:05;1.02;;;0.80;;
13580;SDS011;6861;46.170;7.222;2022-08-19T06:42:33;1.88;;;0.82;;
13580;SDS011;6861;46.170;7.222;2022-08-19T06:45:00;1.13;;;0.80;;
13580;SDS011;6861;46.170;7.222;2022-08-19T06:47:29;1.50;;;0.70;;
13580;SDS011;6861;46.170;7.222;2022-08-19T06:49:56;1.67;;;0.95;;
13580;SDS011;6861;46.170;7.222;2022-08-19T06:52:27;0.80;;;0.80;;
13580;SDS011;6861;46.170;7.222;2022-08-19T06:54:55;0.98;;;0.88;;
13580;SDS011;6861;46.170;7.222;2022-08-19T06:57:23;1.73;;;1.10;;
13580;SDS011;6861;46.170;7.222;2022-08-19T06:59:50;1.42;;;1.10;;
13580;SDS011;6861;46.170;7.222;2022-08-19T07:02:17;1.38;;;1.15;;
13580;SDS011;6861;46.170;7.222;2022-08-19T07:04:45;2.17;;;1.05;;
13580;SDS011;6861;46.170;7.222;2022-08-19T07:07:13;2.83;;;1.20;;
13580;SDS011;6861;46.170;7.222;2022-08-19T07:09:41;1.23;;;1.13;;
13580;SDS011;6861;46.170;7.222;2022-08-19T07:12:12;1.17;;;1.08;;
13580;SDS011;6861;46.170;7.222;2022-08-19T07:14:41;1.83;;;1.02;;
13580;SDS011;6861;46.170;7.222;2022-08-19T07:17:11;2.22;;;1.38;;
13580;SDS011;6861;46.170;7.222;2022-08-19T07:19:39;2.00;;;1.20;;
13580;SDS011;6861;46.170;7.222;2022-08-19T07:22:07;2.53;;;1.60;;
13580;SDS011;6861;46.170;7.222;2022-08-19T07:24:35;1.60;;;1.30;;
13580;SDS011;6861;46.170;7.222;2022-08-19T07:27:04;1.48;;;1.30;;
13580;SDS011;6861;46.170;7.222;2022-08-19T07:29:34;2.80;;;1.65;;
13580;SDS011;6861;46.170;7.222;2022-08-19T07:32:03;1.67;;;1.58;;
13580;SDS011;6861;46.170;7.222;2022-08-19T07:34:32;1.50;;;1.40;;
13580;SDS011;6861;46.170;7.222;2022-08-19T07:37:02;3.17;;;1.48;;
13580;SDS011;6861;46.170;7.222;2022-08-19T07:39:31;1.80;;;1.70;;
13580;SDS011;6861;46.170;7.222;2022-08-19T07:42:00;1.98;;;1.77;;
13580;SDS011;6861;46.170;7.222;2022-08-19T07:44:31;1.60;;;1.50;;
13580;SDS011;6861;46.170;7.222;2022-08-19T07:47:00;1.83;;;1.58;;
13580;SDS011;6861;46.170;7.222;2022-08-19T07:49:28;1.80;;;1.70;;
13580;SDS011;6861;46.170;7.222;2022-08-19T07:51:56;1.98;;;1.80;;
13580;SDS011;6861;46.170;7.222;2022-08-19T07:54:26;1.98;;;1.70;;
13580;SDS011;6861;46.170;7.222;2022-08-19T07:56:56;2.30;;;2.10;;
13580;SDS011;6861;46.170;7.222;2022-08-19T07:59:23;1.88;;;1.73;;
13580;SDS011;6861;46.170;7.222;2022-08-19T08:01:51;1.80;;;1.70;;
13580;SDS011;6861;46.170;7.222;2022-08-19T08:04:20;2.13;;;1.90;;
13580;SDS011;6861;46.170;7.222;2022-08-19T08:07:05;2.50;;;1.90;;
13580;SDS011;6861;46.170;7.222;2022-08-19T08:09:50;2.10;;;1.90;;
13580;SDS011;6861;46.170;7.222;2022-08-19T08:12:18;3.60;;;2.00;;
13580;SDS011;6861;46.170;7.222;2022-08-19T08:14:54;1.90;;;1.80;;
13580;SDS011;6861;46.170;7.222;2022-08-19T08:17:23;1.80;;;1.70;;
13580;SDS011;6861;46.170;7.222;2022-08-19T08:19:53;2.30;;;2.08;;
13580;SDS011;6861;46.170;7.222;2022-08-19T08:22:21;2.80;;;2.30;;
13580;SDS011;6861;46.170;7.222;2022-08-19T08:25:03;3.30;;;2.35;;
13580;SDS011;6861;46.170;7.222;2022-08-19T08:27:31;2.40;;;2.20;;
13580;SDS011;6861;46.170;7.222;2022-08-19T08:30:05;3.00;;;2.70;;
13580;SDS011;6861;46.170;7.222;2022-08-19T08:32:34;2.53;;;2.30;;
13580;SDS011;6861;46.170;7.222;2022-08-19T08:35:04;4.35;;;3.00;;
13580;SDS011;6861;46.170;7.222;2022-08-19T08:37:31;3.05;;;2.67;;
13580;SDS011;6861;46.170;7.222;2022-08-19T08:39:58;4.03;;;2.80;;
13580;SDS011;6861;46.170;7.222;2022-08-19T08:42:28;3.42;;;2.72;;
13580;SDS011;6861;46.170;7.222;2022-08-19T08:44:59;2.88;;;2.65;;
13580;SDS011;6861;46.170;7.222;2022-08-19T08:47:30;4.35;;;2.83;;
13580;SDS011;6861;46.170;7.222;2022-08-19T08:50:02;3.70;;;2.90;;
13580;SDS011;6861;46.170;7.222;2022-08-19T08:52:35;4.78;;;2.80;;
13580;SDS011;6861;46.170;7.222;2022-08-19T08:55:08;3.90;;;2.92;;
13580;SDS011;6861;46.170;7.222;2022-08-19T08:57:39;3.40;;;3.10;;
13580;SDS011;6861;46.170;7.222;2022-08-19T09:00:12;3.58;;;3.28;;
13580;SDS011;6861;46.170;7.222;2022-08-19T09:02:42;3.70;;;3.38;;
13580;SDS011;6861;46.170;7.222;2022-08-19T09:05:11;3.83;;;3.20;;
13580;SDS011;6861;46.170;7.222;2022-08-19T09:07:41;4.78;;;3.42;;
13580;SDS011;6861;46.170;7.222;2022-08-19T09:10:17;3.90;;;3.60;;
13580;SDS011;6861;46.170;7.222;2022-08-19T09:12:53;3.53;;;3.22;;
13580;SDS011;6861;46.170;7.222;2022-08-19T09:15:28;3.92;;;3.50;;
13580;SDS011;6861;46.170;7.222;2022-08-19T09:18:00;4.10;;;3.70;;
13580;SDS011;6861;46.170;7.222;2022-08-19T09:20:30;4.57;;;3.47;;
13580;SDS011;6861;46.170;7.222;2022-08-19T09:22:57;4.00;;;3.55;;
13580;SDS011;6861;46.170;7.222;2022-08-19T09:25:25;4.50;;;4.10;;
13580;SDS011;6861;46.170;7.222;2022-08-19T09:27:52;5.15;;;3.65;;
13580;SDS011;6861;46.170;7.222;2022-08-19T09:30:22;5.35;;;3.80;;
13580;SDS011;6861;46.170;7.222;2022-08-19T09:32:51;5.15;;;3.85;;
13580;SDS011;6861;46.170;7.222;2022-08-19T09:35:19;4.63;;;4.00;;
13580;SDS011;6861;46.170;7.222;2022-08-19T09:37:49;4.95;;;3.80;;
13580;SDS011;6861;46.170;7.222;2022-08-19T09:40:17;3.90;;;3.60;;
13580;SDS011;6861;46.170;7.222;2022-08-19T09:42:45;4.30;;;3.88;;
13580;SDS011;6861;46.170;7.222;2022-08-19T09:45:13;4.63;;;3.63;;
13580;SDS011;6861;46.170;7.222;2022-08-19T09:47:41;4.30;;;3.90;;
13580;SDS011;6861;46.170;7.222;2022-08-19T09:50:09;4.22;;;3.83;;
13580;SDS011;6861;46.170;7.222;2022-08-19T09:52:37;4.90;;;4.07;;
13580;SDS011;6861;46.170;7.222;2022-08-19T09:55:07;4.50;;;4.00;;
13580;SDS011;6861;46.170;7.222;2022-08-19T09:57:36;4.18;;;3.53;;
13580;SDS011;6861;46.170;7.222;2022-08-19T10:00:04;5.35;;;3.80;;
13580;SDS011;6861;46.170;7.222;2022-08-19T10:02:34;3.83;;;3.47;;
13580;SDS011;6861;46.170;7.222;2022-08-19T10:05:01;4.97;;;3.80;;
13580;SDS011;6861;46.170;7.222;2022-08-19T10:07:45;4.50;;;4.07;;
13580;SDS011;6861;46.170;7.222;2022-08-19T10:10:14;3.72;;;3.42;;
13580;SDS011;6861;46.170;7.222;2022-08-19T10:12:41;4.28;;;3.80;;
13580;SDS011;6861;46.170;7.222;2022-08-19T10:15:13;3.80;;;3.45;;
13580;SDS011;6861;46.170;7.222;2022-08-19T10:17:41;4.07;;;3.60;;
13580;SDS011;6861;46.170;7.222;2022-08-19T10:20:08;4.38;;;3.97;;
13580;SDS011;6861;46.170;7.222;2022-08-19T10:22:36;4.20;;;3.80;;
13580;SDS011;6861;46.170;7.222;2022-08-19T10:25:04;4.00;;;3.60;;
13580;SDS011;6861;46.170;7.222;2022-08-19T10:27:33;3.95;;;3.65;;
13580;SDS011;6861;46.170;7.222;2022-08-19T10:30:00;3.70;;;3.40;;
13580;SDS011;6861;46.170;7.222;2022-08-19T10:32:27;4.15;;;3.60;;
13580;SDS011;6861;46.170;7.222;2022-08-19T10:34:55;3.65;;;3.13;;
13580;SDS011;6861;46.170;7.222;2022-08-19T10:37:22;3.97;;;3.58;;
13580;SDS011;6861;46.170;7.222;2022-08-19T10:39:49;4.35;;;3.42;;
13580;SDS011;6861;46.170;7.222;2022-08-19T10:42:16;4.00;;;3.60;;
13580;SDS011;6861;46.170;7.222;2022-08-19T10:44:45;4.57;;;3.70;;
13580;SDS011;6861;46.170;7.222;2022-08-19T10:47:13;5.60;;;3.67;;
13580;SDS011;6861;46.170;7.222;2022-08-19T10:49:40;3.70;;;3.33;;
13580;SDS011;6861;46.170;7.222;2022-08-19T10:52:21;4.43;;;3.67;;
13580;SDS011;6861;46.170;7.222;2022-08-19T10:55:00;3.47;;;3.17;;
13580;SDS011;6861;46.170;7.222;2022-08-19T10:57:45;3.22;;;3.03;;
13580;SDS011;6861;46.170;7.222;2022-08-19T11:00:14;4.15;;;3.45;;
13580;SDS011;6861;46.170;7.222;2022-08-19T11:02:41;3.33;;;3.03;;
13580;SDS011;6861;46.170;7.222;2022-08-19T11:05:08;3.65;;;3.00;;
13580;SDS011;6861;46.170;7.222;2022-08-19T11:07:37;3.58;;;3.00;;
13580;SDS011;6861;46.170;7.222;2022-08-19T11:10:05;3.40;;;3.10;;
13580;SDS011;6861;46.170;7.222;2022-08-19T11:12:36;2.95;;;2.75;;
13580;SDS011;6861;46.170;7.222;2022-08-19T11:15:05;3.30;;;3.00;;
13580;SDS011;6861;46.170;7.222;2022-08-19T11:17:37;3.42;;;3.13;;
13580;SDS011;6861;46.170;7.222;2022-08-19T11:20:08;3.03;;;2.72;;
13580;SDS011;6861;46.170;7.222;2022-08-19T11:22:37;3.70;;;3.40;;
13580;SDS011;6861;46.170;7.222;2022-08-19T11:25:05;3.15;;;2.92;;
13580;SDS011;6861;46.170;7.222;2022-08-19T11:27:34;3.35;;;3.05;;
13580;SDS011;6861;46.170;7.222;2022-08-19T11:30:05;3.72;;;3.42;;
13580;SDS011;6861;46.170;7.222;2022-08-19T11:32:33;4.15;;;3.05;;
13580;SDS011;6861;46.170;7.222;2022-08-19T11:35:01;2.97;;;2.67;;
13580;SDS011;6861;46.170;7.222;2022-08-19T11:37:28;3.40;;;3.10;;
13580;SDS011;6861;46.170;7.222;2022-08-19T11:39:56;3.50;;;3.20;;
13580;SDS011;6861;46.170;7.222;2022-08-19T11:42:22;3.33;;;3.03;;
13580;SDS011;6861;46.170;7.222;2022-08-19T11:45:07;4.15;;;3.17;;
13580;SDS011;6861;46.170;7.222;2022-08-19T11:47:35;3.15;;;2.88;;
13580;SDS011;6861;46.170;7.222;2022-08-19T11:50:05;3.67;;;3.10;;
13580;SDS011;6861;46.170;7.222;2022-08-19T11:52:32;3.80;;;3.50;;
13580;SDS011;6861;46.170;7.222;2022-08-19T11:54:59;3.20;;;2.95;;
13580;SDS011;6861;46.170;7.222;2022-08-19T11:57:26;3.28;;;2.90;;
13580;SDS011;6861;46.170;7.222;2022-08-19T11:59:54;3.60;;;3.15;;
13580;SDS011;6861;46.170;7.222;2022-08-19T12:02:21;4.63;;;3.45;;
13580;SDS011;6861;46.170;7.222;2022-08-19T12:04:48;4.15;;;3.40;;
13580;SDS011;6861;46.170;7.222;2022-08-19T12:07:16;4.63;;;3.47;;
13580;SDS011;6861;46.170;7.222;2022-08-19T12:09:44;4.35;;;3.95;;
13580;SDS011;6861;46.170;7.222;2022-08-19T12:12:11;4.70;;;4.13;;
13580;SDS011;6861;46.170;7.222;2022-08-19T12:14:38;4.38;;;3.97;;
13580;SDS011;6861;46.170;7.222;2022-08-19T12:17:05;4.65;;;4.22;;
13580;SDS011;6861;46.170;7.222;2022-08-19T12:19:35;4.45;;;4.05;;
13580;SDS011;6861;46.170;7.222;2022-08-19T12:22:02;4.38;;;3.97;;
13580;SDS011;6861;46.170;7.222;2022-08-19T12:24:32;4.78;;;4.03;;
13580;SDS011;6861;46.170;7.222;2022-08-19T12:26:59;4.78;;;4.38;;
13580;SDS011;6861;46.170;7.222;2022-08-19T12:29:28;5.10;;;4.28;;
13580;SDS011;6861;46.170;7.222;2022-08-19T12:31:56;5.78;;;4.53;;
13580;SDS011;6861;46.170;7.222;2022-08-19T12:34:28;4.00;;;3.60;;
13580;SDS011;6861;46.170;7.222;2022-08-19T12:36:56;4.63;;;4.20;;
13580;SDS011;6861;46.170;7.222;2022-08-19T12:39:24;4.47;;;4.07;;
13580;SDS011;6861;46.170;7.222;2022-08-19T12:41:53;4.68;;;4.28;;
13580;SDS011;6861;46.170;7.222;2022-08-19T12:44:20;4.50;;;4.10;;
13580;SDS011;6861;46.170;7.222;2022-08-19T12:46:47;4.30;;;3.92;;
13580;SDS011;6861;46.170;7.222;2022-08-19T12:49:15;4.65;;;4.20;;
13580;SDS011;6861;46.170;7.222;2022-08-19T12:51:42;4.80;;;4.18;;
13580;SDS011;6861;46.170;7.222;2022-08-19T12:54:09;4.60;;;4.15;;
13580;SDS011;6861;46.170;7.222;2022-08-19T12:56:36;4.65;;;4.25;;
13580;SDS011;6861;46.170;7.222;2022-08-19T12:59:04;6.18;;;4.32;;
13580;SDS011;6861;46.170;7.222;2022-08-19T13:01:33;4.35;;;3.95;;
13580;SDS011;6861;46.170;7.222;2022-08-19T13:04:00;4.90;;;4.38;;
13580;SDS011;6861;46.170;7.222;2022-08-19T13:06:27;6.78;;;5.03;;
13580;SDS011;6861;46.170;7.222;2022-08-19T13:08:54;5.78;;;5.18;;
13580;SDS011;6861;46.170;7.222;2022-08-19T13:11:22;4.90;;;4.50;;
13580;SDS011;6861;46.170;7.222;2022-08-19T13:13:51;5.50;;;4.95;;
13580;SDS011;6861;46.170;7.222;2022-08-19T13:16:21;7.32;;;5.00;;
13580;SDS011;6861;46.170;7.222;2022-08-19T13:18:48;6.10;;;5.43;;
13580;SDS011;6861;46.170;7.222;2022-08-19T13:21:16;6.43;;;5.65;;
13580;SDS011;6861;46.170;7.222;2022-08-19T13:23:45;6.10;;;5.50;;
13580;SDS011;6861;46.170;7.222;2022-08-19T13:26:12;5.97;;;5.43;;
13580;SDS011;6861;46.170;7.222;2022-08-19T13:28:40;6.05;;;5.47;;
13580;SDS011;6861;46.170;7.222;2022-08-19T13:31:28;5.63;;;5.15;;
13580;SDS011;6861;46.170;7.222;2022-08-19T13:34:15;5.88;;;5.38;;
13580;SDS011;6861;46.170;7.222;2022-08-19T13:36:43;6.15;;;5.55;;
13580;SDS011;6861;46.170;7.222;2022-08-19T13:39:10;6.13;;;5.53;;
13580;SDS011;6861;46.170;7.222;2022-08-19T13:41:37;5.95;;;5.35;;
13580;SDS011;6861;46.170;7.222;2022-08-19T13:44:12;5.50;;;5.00;;
13580;SDS011;6861;46.170;7.222;2022-08-19T13:46:41;5.75;;;5.15;;
13580;SDS011;6861;46.170;7.222;2022-08-19T13:49:10;5.70;;;4.75;;
13580;SDS011;6861;46.170;7.222;2022-08-19T13:51:37;5.40;;;4.88;;
13580;SDS011;6861;46.170;7.222;2022-08-19T13:54:05;4.65;;;4.22;;
13580;SDS011;6861;46.170;7.222;2022-08-19T13:56:34;4.88;;;4.35;;
13580;SDS011;6861;46.170;7.222;2022-08-19T13:59:01;4.80;;;4.40;;
13580;SDS011;6861;46.170;7.222;2022-08-19T14:01:28;4.45;;;4.05;;
13580;SDS011;6861;46.170;7.222;2022-08-19T14:03:56;4.32;;;3.92;;
13580;SDS011;6861;46.170;7.222;2022-08-19T14:06:24;4.60;;;4.20;;
13580;SDS011;6861;46.170;7.222;2022-08-19T14:08:51;5.15;;;4.55;;
13580;SDS011;6861;46.170;7.222;2022-08-19T14:11:18;5.07;;;4.68;;
13580;SDS011;6861;46.170;7.222;2022-08-19T14:13:45;5.30;;;4.80;;
13580;SDS011;6861;46.170;7.222;2022-08-19T14:16:13;4.80;;;4.40;;
13580;SDS011;6861;46.170;7.222;2022-08-19T14:18:40;5.10;;;4.60;;
13580;SDS011;6861;46.170;7.222;2022-08-19T14:21:13;4.78;;;4.38;;
13580;SDS011;6861;46.170;7.222;2022-08-19T14:23:42;5.30;;;4.25;;
13580;SDS011;6861;46.170;7.222;2022-08-19T14:26:11;4.72;;;4.10;;
13580;SDS011;6861;46.170;7.222;2022-08-19T14:28:41;5.25;;;4.63;;
13580;SDS011;6861;46.170;7.222;2022-08-19T14:31:09;5.00;;;4.60;;
13580;SDS011;6861;46.170;7.222;2022-08-19T14:33:36;7.80;;;4.00;;
13580;SDS011;6861;46.170;7.222;2022-08-19T14:36:03;4.25;;;3.85;;
13580;SDS011;6861;46.170;7.222;2022-08-19T14:38:32;5.15;;;4.53;;
13580;SDS011;6861;46.170;7.222;2022-08-19T14:41:10;5.15;;;4.57;;
13580;SDS011;6861;46.170;7.222;2022-08-19T14:43:40;5.07;;;4.68;;
13580;SDS011;6861;46.170;7.222;2022-08-19T14:46:10;5.30;;;4.80;;
13580;SDS011;6861;46.170;7.222;2022-08-19T14:48:38;5.80;;;5.05;;
13580;SDS011;6861;46.170;7.222;2022-08-19T14:51:05;4.97;;;4.57;;
13580;SDS011;6861;46.170;7.222;2022-08-19T14:53:34;5.00;;;4.60;;
13580;SDS011;6861;46.170;7.222;2022-08-19T14:56:01;4.70;;;4.30;;
13580;SDS011;6861;46.170;7.222;2022-08-19T14:58:33;4.90;;;4.43;;
13580;SDS011;6861;46.170;7.222;2022-08-19T15:01:00;5.63;;;4.90;;
13580;SDS011;6861;46.170;7.222;2022-08-19T15:03:28;4.93;;;4.47;;
13580;SDS011;6861;46.170;7.222;2022-08-19T15:05:56;5.70;;;5.20;;
13580;SDS011;6861;46.170;7.222;2022-08-19T15:08:24;5.90;;;5.30;;
13580;SDS011;6861;46.170;7.222;2022-08-19T15:10:53;5.28;;;4.88;;
13580;SDS011;6861;46.170;7.222;2022-08-19T15:13:21;5.68;;;5.15;;
13580;SDS011;6861;46.170;7.222;2022-08-19T15:15:52;5.80;;;5.20;;
13580;SDS011;6861;46.170;7.222;2022-08-19T15:18:27;6.53;;;5.80;;
13580;SDS011;6861;46.170;7.222;2022-08-19T15:21:01;5.70;;;5.20;;
13580;SDS011;6861;46.170;7.222;2022-08-19T15:23:29;5.28;;;4.88;;
13580;SDS011;6861;46.170;7.222;2022-08-19T15:25:58;5.97;;;5.47;;
13580;SDS011;6861;46.170;7.222;2022-08-19T15:28:25;6.15;;;5.55;;
13580;SDS011;6861;46.170;7.222;2022-08-19T15:30:52;9.07;;;5.45;;
13580;SDS011;6861;46.170;7.222;2022-08-19T15:33:19;5.50;;;5.00;;
13580;SDS011;6861;46.170;7.222;2022-08-19T15:35:46;6.05;;;5.45;;
13580;SDS011;6861;46.170;7.222;2022-08-19T15:38:16;5.47;;;5.00;;
13580;SDS011;6861;46.170;7.222;2022-08-19T15:40:44;6.05;;;5.45;;
13580;SDS011;6861;46.170;7.222;2022-08-19T15:43:14;5.78;;;5.05;;